createdAt,value
2023-01-15T00:00:36.691Z,35.71
2023-01-15T00:05:42.763Z,32.50
2023-01-15T00:10:50.754Z,27.14
2023-01-15T00:15:56.866Z,21.43
2023-01-15T00:21:04.782Z,22.14
2023-01-15T00:26:11.189Z,28.21
2023-01-15T00:31:17.777Z,27.50
2023-01-15T00:36:23.858Z,23.93
2023-01-15T00:41:30.627Z,21.07
2023-01-15T00:46:37.487Z,32.14
2023-01-15T00:51:45.188Z,36.42
2023-01-15T00:56:51.856Z,30.35
2023-01-15T01:01:57.675Z,21.78
2023-01-15T01:07:03.756Z,20.00
2023-01-15T01:12:10.759Z,19.28
2023-01-15T01:17:17.788Z,20.71
2023-01-15T01:22:24.277Z,26.78
2023-01-15T01:27:30.693Z,21.07
2023-01-15T01:32:38.254Z,20.71
2023-01-15T01:37:44.808Z,21.78
2023-01-15T01:42:52.918Z,21.78
2023-01-15T01:47:59.155Z,31.78
2023-01-15T01:53:06.157Z,22.14
2023-01-15T01:58:12.285Z,21.78
2023-01-15T02:03:19.032Z,21.07
2023-01-15T02:08:27.396Z,25.71
2023-01-15T02:13:33.696Z,21.43
2023-01-15T02:18:39.755Z,21.07
2023-01-15T02:23:46.272Z,25.71
2023-01-15T02:28:52.394Z,26.07
2023-01-15T02:34:00.149Z,32.14
2023-01-15T02:39:08.914Z,22.85
2023-01-15T02:44:16.447Z,25.35
2023-01-15T02:49:22.361Z,41.78
2023-01-15T02:54:28.895Z,26.07
2023-01-15T02:59:35.083Z,38.21
2023-01-15T03:04:42.797Z,26.43
2023-01-15T03:09:49.896Z,32.85
2023-01-15T03:14:56.465Z,22.50
2023-01-15T03:20:02.711Z,19.28
2023-01-15T03:25:11.582Z,20.71
2023-01-15T03:30:17.865Z,36.07
2023-01-15T03:35:24.447Z,21.07
2023-01-15T03:40:30.755Z,22.50
2023-01-15T03:45:38.195Z,31.07
2023-01-15T03:51:02.676Z,27.14
2023-01-15T03:55:49.584Z,21.78
2023-01-15T04:00:55.993Z,21.07
2023-01-15T04:06:02.691Z,22.14
2023-01-15T04:11:09.308Z,21.43
2023-01-15T04:16:15.580Z,25.35
2023-01-15T04:21:23.833Z,32.50
2023-01-15T04:26:30.346Z,21.07
2023-01-15T04:31:36.499Z,23.93
2023-01-15T04:36:43.326Z,25.35
2023-01-15T04:41:49.464Z,35.71
2023-01-15T04:46:55.763Z,21.43
2023-01-15T04:52:03.277Z,21.07
2023-01-15T04:57:10.271Z,28.57
2023-01-15T05:02:16.838Z,19.64
2023-01-15T05:07:23.405Z,21.07
2023-01-15T05:12:29.485Z,21.78
2023-01-15T05:17:36.357Z,21.43
2023-01-15T05:22:42.868Z,21.07
2023-01-15T05:27:49.813Z,23.57
2023-01-15T05:32:54.967Z,27.50
2023-01-15T05:38:02.578Z,21.07
2023-01-15T05:43:09.077Z,24.28
2023-01-15T05:48:15.442Z,21.43
2023-01-15T05:53:22.137Z,23.21
2023-01-15T05:58:38.271Z,22.14
2023-01-15T06:03:34.655Z,30.71
2023-01-15T06:08:40.837Z,20.35
2023-01-15T06:13:47.576Z,20.71
2023-01-15T06:18:53.797Z,19.28
2023-01-15T06:24:00.788Z,22.14
2023-01-15T06:29:06.945Z,21.07
2023-01-15T06:34:13.683Z,21.78
2023-01-15T06:39:20.964Z,21.07
2023-01-15T06:44:28.359Z,31.07
2023-01-15T06:49:33.628Z,28.57
2023-01-15T06:54:40.281Z,31.43
2023-01-15T06:59:46.323Z,21.07
2023-01-15T07:04:52.845Z,22.50
2023-01-15T07:10:00.337Z,20.00
2023-01-15T07:15:06.954Z,21.07
2023-01-15T07:20:13.171Z,25.35
2023-01-15T07:25:19.787Z,20.71
2023-01-15T07:30:25.947Z,20.00
2023-01-15T07:35:34.559Z,21.07
2023-01-15T07:40:41.098Z,19.28
2023-01-15T07:45:48.963Z,21.07
2023-01-15T07:50:55.056Z,19.28
2023-01-15T07:56:03.182Z,20.00
2023-01-15T08:01:09.066Z,22.50
2023-01-15T08:06:18.115Z,21.43
2023-01-15T08:11:25.930Z,20.00
2023-01-15T08:16:35.976Z,21.07
2023-01-15T08:21:34.102Z,18.57
2023-01-15T08:26:39.699Z,21.07
2023-01-15T08:31:50.228Z,20.00
2023-01-15T08:36:50.279Z,21.07
2023-01-15T08:41:56.915Z,15.71
2023-01-15T08:47:03.370Z,18.21
2023-01-15T08:52:09.727Z,25.35
2023-01-15T08:57:15.928Z,21.78
2023-01-15T09:02:25.763Z,16.07
2023-01-15T09:07:35.064Z,18.93
2023-01-15T09:12:47.410Z,12.50
2023-01-15T09:17:53.887Z,20.00
2023-01-15T09:22:50.323Z,13.93
2023-01-15T09:28:01.573Z,11.43
2023-01-15T09:33:06.481Z,19.64
2023-01-15T09:38:03.068Z,20.00
2023-01-15T09:43:12.611Z,14.64
2023-01-15T09:48:20.952Z,12.50
2023-01-15T09:53:30.478Z,8.57
2023-01-15T09:58:37.647Z,11.43
2023-01-15T10:03:44.418Z,10.00
2023-01-15T10:09:00.156Z,16.78
2023-01-15T10:14:03.747Z,21.78
2023-01-15T10:19:02.685Z,17.86
2023-01-15T10:24:10.267Z,20.71
2023-01-15T10:29:17.653Z,18.93
2023-01-15T10:34:39.579Z,10.71
2023-01-15T10:39:29.559Z,3.93
2023-01-15T10:44:27.738Z,20.71
2023-01-15T10:49:34.780Z,6.07
2023-01-15T10:54:45.757Z,7.86
2023-01-15T10:59:45.857Z,21.43
2023-01-15T11:04:45.597Z,18.57
2023-01-15T11:09:54.000Z,4.29
2023-01-15T11:14:51.877Z,14.28
2023-01-15T11:20:07.128Z,11.78
2023-01-15T11:25:05.892Z,20.35
2023-01-15T11:30:15.247Z,11.07
2023-01-15T11:35:22.199Z,17.14
2023-01-15T11:40:36.597Z,21.07
2023-01-15T11:45:32.544Z,11.78
2023-01-15T11:55:46.688Z,14.89
2023-01-15T12:00:53.839Z,13.93
2023-01-15T12:06:02.273Z,2.50
2023-01-15T12:11:21.272Z,11.07
2023-01-15T12:16:26.602Z,23.21
2023-01-15T12:21:27.618Z,19.28
2023-01-15T12:26:23.146Z,4.64
2023-01-15T12:31:39.758Z,0.00
2023-01-15T12:36:36.374Z,2.86
2023-01-15T12:41:42.366Z,13.21
2023-01-15T12:46:49.400Z,15.36
2023-01-15T12:51:55.614Z,10.71
2023-01-15T12:57:02.885Z,16.78
2023-01-15T13:02:07.990Z,10.71
2023-01-15T13:07:20.041Z,3.57
2023-01-15T13:12:17.718Z,0.36
2023-01-15T13:17:24.190Z,1.43
2023-01-15T13:22:30.840Z,7.86
2023-01-15T13:27:36.899Z,6.07
2023-01-15T13:37:49.175Z,6.18
2023-01-15T13:43:03.858Z,3.57
2023-01-15T13:48:06.064Z,0.71
2023-01-15T13:53:02.276Z,1.07
2023-01-15T13:58:11.299Z,7.86
2023-01-15T14:03:43.575Z,13.57
2023-01-15T14:08:28.080Z,0.00
2023-01-15T14:13:28.999Z,4.29
2023-01-15T14:18:25.088Z,1.07
2023-01-15T14:23:31.467Z,4.64
2023-01-15T14:28:37.681Z,7.86
2023-01-15T14:33:46.293Z,7.14
2023-01-15T14:38:52.218Z,3.93
2023-01-15T14:44:01.278Z,3.21
2023-01-15T14:49:13.402Z,18.21
2023-01-15T14:54:22.468Z,0.00
2023-01-15T14:59:24.331Z,0.00
2023-01-15T15:04:20.707Z,1.43
2023-01-15T15:09:29.861Z,2.86
2023-01-15T15:14:36.041Z,0.00
2023-01-15T15:19:49.799Z,3.57
2023-01-15T15:24:45.628Z,13.57
2023-01-15T15:30:21.457Z,5.71
2023-01-15T15:34:59.017Z,1.07
2023-01-15T15:40:39.338Z,13.57
2023-01-15T15:45:17.175Z,7.50
2023-01-15T15:50:34.428Z,4.64
2023-01-15T15:55:29.657Z,0.00
2023-01-15T16:00:37.627Z,15.71
2023-01-15T16:05:34.249Z,13.21
2023-01-15T16:10:41.886Z,11.78
2023-01-15T16:15:56.343Z,11.78
2023-01-15T16:21:07.090Z,6.07
2023-01-15T16:31:44.768Z,1.07
2023-01-15T16:36:05.816Z,3.93
2023-01-15T16:41:02.643Z,17.14
2023-01-15T16:46:09.947Z,13.21
2023-01-15T16:51:16.113Z,0.36
2023-01-15T16:56:22.758Z,9.64
2023-01-15T17:01:30.060Z,21.07
2023-01-15T17:06:56.251Z,10.36
2023-01-15T17:16:56.281Z,13.44
2023-01-15T17:21:55.231Z,2.86
2023-01-15T17:27:08.395Z,14.64
2023-01-15T17:32:16.597Z,0.36
2023-01-15T17:37:22.300Z,0.71
2023-01-15T17:42:19.331Z,16.43
2023-01-15T17:52:30.939Z,14.53
2023-01-15T17:57:37.106Z,5.71
2023-01-15T18:02:44.455Z,11.43
2023-01-15T18:07:50.564Z,8.93
2023-01-15T18:12:57.306Z,12.50
2023-01-15T18:18:03.526Z,17.50
2023-01-15T18:23:10.137Z,13.93
2023-01-15T18:28:16.240Z,18.57
2023-01-15T18:33:23.097Z,0.00
2023-01-15T18:38:30.215Z,3.93
2023-01-15T18:43:37.158Z,12.14
2023-01-15T18:48:43.622Z,13.93
2023-01-15T18:53:50.224Z,20.35
2023-01-15T18:58:56.834Z,19.64
2023-01-15T19:04:02.623Z,15.00
2023-01-15T19:09:08.658Z,16.07
2023-01-15T19:14:15.356Z,7.50
2023-01-15T19:19:21.655Z,18.57
2023-01-15T19:24:29.355Z,5.71
2023-01-15T19:29:35.476Z,8.21
2023-01-15T19:34:43.790Z,0.71
2023-01-15T19:39:50.214Z,15.00
2023-01-15T19:44:56.877Z,1.07
2023-01-15T19:50:03.127Z,13.21
2023-01-15T19:55:09.805Z,5.00
2023-01-15T20:00:16.989Z,0.71
2023-01-15T20:05:24.486Z,12.14
2023-01-15T20:10:30.585Z,6.43
2023-01-15T20:15:37.227Z,11.07
2023-01-15T20:20:44.468Z,11.43
2023-01-15T20:25:51.165Z,15.00
2023-01-15T20:30:58.713Z,14.64
2023-01-15T20:36:05.505Z,7.14
2023-01-15T20:41:11.777Z,9.64
2023-01-15T20:46:18.401Z,11.43
2023-01-15T20:51:24.914Z,8.57
2023-01-15T20:56:33.112Z,21.07
2023-01-15T21:01:39.444Z,14.28
2023-01-15T21:06:45.997Z,7.50
2023-01-15T21:11:53.106Z,10.71
2023-01-15T21:16:59.746Z,7.86
2023-01-15T21:22:05.781Z,7.50
2023-01-15T21:27:13.329Z,9.28
2023-01-15T21:32:19.563Z,2.50
2023-01-15T21:37:26.138Z,4.29
2023-01-15T21:42:32.305Z,6.78
2023-01-15T21:47:38.736Z,0.71
2023-01-15T21:52:44.842Z,0.00
2023-01-15T21:57:52.745Z,12.50
2023-01-15T22:02:59.125Z,0.00
2023-01-15T22:08:06.636Z,6.78
2023-01-15T22:13:12.867Z,10.00
2023-01-15T22:18:19.493Z,0.71
2023-01-15T22:23:25.630Z,0.00
2023-01-15T22:28:33.813Z,8.57
2023-01-15T22:33:40.109Z,2.86
2023-01-15T22:38:46.775Z,12.50
2023-01-15T22:43:53.191Z,16.43
2023-01-15T22:48:59.938Z,17.50
2023-01-15T22:54:05.967Z,12.86
2023-01-15T22:59:13.301Z,11.07
2023-01-15T23:04:22.643Z,21.07
2023-01-15T23:09:29.233Z,13.57
2023-01-15T23:14:35.221Z,19.28
2023-01-15T23:19:43.234Z,13.57
2023-01-15T23:24:49.732Z,16.78
2023-01-15T23:29:57.649Z,17.86
2023-01-15T23:35:04.118Z,13.57
2023-01-15T23:40:10.792Z,21.07
2023-01-15T23:45:17.178Z,19.64
2023-01-15T23:50:25.111Z,11.43
2023-01-15T23:55:31.706Z,11.78
